sensor_id;sensor_type;location;lat;lon;timestamp;P1;durP1;ratioP1;P2;durP2;ratioP2
17330;SDS011;8783;52.448;4.638;2022-07-06T00:01:31;3.42;;;1.30;;
17330;SDS011;8783;52.448;4.638;2022-07-06T00:03:57;6.97;;;1.30;;
17330;SDS011;8783;52.448;4.638;2022-07-06T00:06:25;4.45;;;1.17;;
17330;SDS011;8783;52.448;4.638;2022-07-06T00:08:54;2.72;;;1.08;;
17330;SDS011;8783;52.448;4.638;2022-07-06T00:11:20;4.85;;;1.40;;
17330;SDS011;8783;52.448;4.638;2022-07-06T00:13:46;3.45;;;1.15;;
17330;SDS011;8783;52.448;4.638;2022-07-06T00:16:12;2.13;;;1.20;;
17330;SDS011;8783;52.448;4.638;2022-07-06T00:18:37;3.13;;;1.20;;
17330;SDS011;8783;52.448;4.638;2022-07-06T00:21:03;4.40;;;1.20;;
17330;SDS011;8783;52.448;4.638;2022-07-06T00:23:32;5.82;;;1.20;;
17330;SDS011;8783;52.448;4.638;2022-07-06T00:25:57;4.57;;;1.10;;
17330;SDS011;8783;52.448;4.638;2022-07-06T00:28:23;3.25;;;1.08;;
17330;SDS011;8783;52.448;4.638;2022-07-06T00:30:49;3.88;;;1.30;;
17330;SDS011;8783;52.448;4.638;2022-07-06T00:33:14;6.60;;;1.17;;
17330;SDS011;8783;52.448;4.638;2022-07-06T00:35:40;2.25;;;1.00;;
17330;SDS011;8783;52.448;4.638;2022-07-06T00:38:06;3.38;;;0.95;;
17330;SDS011;8783;52.448;4.638;2022-07-06T00:40:31;3.47;;;0.80;;
17330;SDS011;8783;52.448;4.638;2022-07-06T00:43:00;2.65;;;0.80;;
17330;SDS011;8783;52.448;4.638;2022-07-06T00:45:25;2.10;;;0.70;;
17330;SDS011;8783;52.448;4.638;2022-07-06T00:47:54;2.55;;;0.70;;
17330;SDS011;8783;52.448;4.638;2022-07-06T00:50:19;3.97;;;1.33;;
17330;SDS011;8783;52.448;4.638;2022-07-06T00:55:20;3.60;;;0.70;;
17330;SDS011;8783;52.448;4.638;2022-07-06T00:57:48;4.18;;;1.10;;
17330;SDS011;8783;52.448;4.638;2022-07-06T01:00:15;2.53;;;0.65;;
17330;SDS011;8783;52.448;4.638;2022-07-06T01:02:43;6.55;;;0.95;;
17330;SDS011;8783;52.448;4.638;2022-07-06T01:05:10;3.45;;;0.70;;
17330;SDS011;8783;52.448;4.638;2022-07-06T01:07:37;1.60;;;0.57;;
17330;SDS011;8783;52.448;4.638;2022-07-06T01:10:05;2.22;;;0.73;;
17330;SDS011;8783;52.448;4.638;2022-07-06T01:12:34;2.08;;;0.63;;
17330;SDS011;8783;52.448;4.638;2022-07-06T01:15:04;3.63;;;0.80;;
17330;SDS011;8783;52.448;4.638;2022-07-06T01:17:32;3.00;;;0.52;;
17330;SDS011;8783;52.448;4.638;2022-07-06T01:20:07;2.80;;;0.82;;
17330;SDS011;8783;52.448;4.638;2022-07-06T01:22:44;2.35;;;0.52;;
17330;SDS011;8783;52.448;4.638;2022-07-06T01:25:10;5.05;;;0.93;;
17330;SDS011;8783;52.448;4.638;2022-07-06T01:27:37;3.67;;;0.60;;
17330;SDS011;8783;52.448;4.638;2022-07-06T01:30:08;2.58;;;0.60;;
17330;SDS011;8783;52.448;4.638;2022-07-06T01:32:37;2.47;;;0.50;;
17330;SDS011;8783;52.448;4.638;2022-07-06T01:35:07;2.30;;;0.60;;
17330;SDS011;8783;52.448;4.638;2022-07-06T01:37:34;1.58;;;0.50;;
17330;SDS011;8783;52.448;4.638;2022-07-06T01:40:00;2.47;;;0.55;;
17330;SDS011;8783;52.448;4.638;2022-07-06T01:42:27;2.53;;;0.43;;
17330;SDS011;8783;52.448;4.638;2022-07-06T01:44:53;2.78;;;0.63;;
17330;SDS011;8783;52.448;4.638;2022-07-06T01:47:22;3.42;;;0.80;;
17330;SDS011;8783;52.448;4.638;2022-07-06T01:49:48;2.78;;;0.75;;
17330;SDS011;8783;52.448;4.638;2022-07-06T01:52:14;1.83;;;0.65;;
17330;SDS011;8783;52.448;4.638;2022-07-06T01:54:40;5.05;;;0.70;;
17330;SDS011;8783;52.448;4.638;2022-07-06T01:57:06;1.77;;;0.50;;
17330;SDS011;8783;52.448;4.638;2022-07-06T01:59:32;1.13;;;0.50;;
17330;SDS011;8783;52.448;4.638;2022-07-06T02:01:57;2.42;;;0.57;;
17330;SDS011;8783;52.448;4.638;2022-07-06T02:04:23;2.22;;;0.50;;
17330;SDS011;8783;52.448;4.638;2022-07-06T02:06:49;2.35;;;0.55;;
17330;SDS011;8783;52.448;4.638;2022-07-06T02:09:17;1.42;;;0.70;;
17330;SDS011;8783;52.448;4.638;2022-07-06T02:11:43;1.98;;;0.52;;
17330;SDS011;8783;52.448;4.638;2022-07-06T02:14:08;2.38;;;0.70;;
17330;SDS011;8783;52.448;4.638;2022-07-06T02:16:37;3.75;;;0.80;;
17330;SDS011;8783;52.448;4.638;2022-07-06T02:19:02;4.25;;;0.80;;
17330;SDS011;8783;52.448;4.638;2022-07-06T02:21:28;2.75;;;0.50;;
17330;SDS011;8783;52.448;4.638;2022-07-06T02:23:54;2.65;;;0.70;;
17330;SDS011;8783;52.448;4.638;2022-07-06T02:26:19;3.70;;;0.80;;
17330;SDS011;8783;52.448;4.638;2022-07-06T02:28:48;2.72;;;0.60;;
17330;SDS011;8783;52.448;4.638;2022-07-06T02:31:14;1.42;;;0.50;;
17330;SDS011;8783;52.448;4.638;2022-07-06T02:33:40;1.98;;;0.50;;
17330;SDS011;8783;52.448;4.638;2022-07-06T02:36:06;2.92;;;0.70;;
17330;SDS011;8783;52.448;4.638;2022-07-06T02:38:32;2.92;;;0.70;;
17330;SDS011;8783;52.448;4.638;2022-07-06T02:40:58;1.63;;;0.50;;
17330;SDS011;8783;52.448;4.638;2022-07-06T02:43:23;1.92;;;0.65;;
17330;SDS011;8783;52.448;4.638;2022-07-06T02:45:49;1.55;;;0.50;;
17330;SDS011;8783;52.448;4.638;2022-07-06T02:48:15;2.17;;;0.57;;
17330;SDS011;8783;52.448;4.638;2022-07-06T02:50:40;1.35;;;0.60;;
17330;SDS011;8783;52.448;4.638;2022-07-06T02:53:06;2.92;;;0.82;;
17330;SDS011;8783;52.448;4.638;2022-07-06T02:55:32;3.13;;;0.65;;
17330;SDS011;8783;52.448;4.638;2022-07-06T02:57:57;1.10;;;0.47;;
17330;SDS011;8783;52.448;4.638;2022-07-06T03:00:23;2.75;;;0.60;;
17330;SDS011;8783;52.448;4.638;2022-07-06T03:02:49;1.02;;;0.50;;
17330;SDS011;8783;52.448;4.638;2022-07-06T03:05:14;2.40;;;0.70;;
17330;SDS011;8783;52.448;4.638;2022-07-06T03:07:40;1.98;;;0.65;;
17330;SDS011;8783;52.448;4.638;2022-07-06T03:10:08;3.75;;;0.70;;
17330;SDS011;8783;52.448;4.638;2022-07-06T03:12:34;3.88;;;0.70;;
17330;SDS011;8783;52.448;4.638;2022-07-06T03:15:00;2.45;;;0.60;;
17330;SDS011;8783;52.448;4.638;2022-07-06T03:17:25;2.22;;;0.60;;
17330;SDS011;8783;52.448;4.638;2022-07-06T03:19:51;4.82;;;0.70;;
17330;SDS011;8783;52.448;4.638;2022-07-06T03:22:19;3.50;;;0.70;;
17330;SDS011;8783;52.448;4.638;2022-07-06T03:24:45;4.75;;;0.70;;
17330;SDS011;8783;52.448;4.638;2022-07-06T03:27:10;4.18;;;0.65;;
17330;SDS011;8783;52.448;4.638;2022-07-06T03:29:36;3.03;;;0.77;;
17330;SDS011;8783;52.448;4.638;2022-07-06T03:32:01;1.60;;;0.60;;
17330;SDS011;8783;52.448;4.638;2022-07-06T03:34:27;2.97;;;0.57;;
17330;SDS011;8783;52.448;4.638;2022-07-06T03:36:53;2.35;;;0.60;;
17330;SDS011;8783;52.448;4.638;2022-07-06T03:39:18;4.00;;;0.70;;
17330;SDS011;8783;52.448;4.638;2022-07-06T03:41:44;3.88;;;0.80;;
17330;SDS011;8783;52.448;4.638;2022-07-06T03:44:10;3.65;;;0.60;;
17330;SDS011;8783;52.448;4.638;2022-07-06T03:46:35;3.25;;;0.88;;
17330;SDS011;8783;52.448;4.638;2022-07-06T03:49:01;3.78;;;0.90;;
17330;SDS011;8783;52.448;4.638;2022-07-06T03:51:27;2.50;;;0.63;;
17330;SDS011;8783;52.448;4.638;2022-07-06T03:53:53;2.45;;;0.70;;
17330;SDS011;8783;52.448;4.638;2022-07-06T03:56:18;4.97;;;0.80;;
17330;SDS011;8783;52.448;4.638;2022-07-06T03:58:53;3.60;;;0.75;;
17330;SDS011;8783;52.448;4.638;2022-07-06T04:01:19;3.72;;;0.70;;
17330;SDS011;8783;52.448;4.638;2022-07-06T04:03:45;4.45;;;0.60;;
17330;SDS011;8783;52.448;4.638;2022-07-06T04:06:10;2.00;;;0.60;;
17330;SDS011;8783;52.448;4.638;2022-07-06T04:08:36;2.80;;;0.60;;
17330;SDS011;8783;52.448;4.638;2022-07-06T04:11:02;2.33;;;0.70;;
17330;SDS011;8783;52.448;4.638;2022-07-06T04:13:28;3.60;;;0.70;;
17330;SDS011;8783;52.448;4.638;2022-07-06T04:15:54;3.58;;;0.80;;
17330;SDS011;8783;52.448;4.638;2022-07-06T04:18:19;3.22;;;0.82;;
17330;SDS011;8783;52.448;4.638;2022-07-06T04:20:45;4.18;;;1.00;;
17330;SDS011;8783;52.448;4.638;2022-07-06T04:23:11;4.20;;;0.90;;
17330;SDS011;8783;52.448;4.638;2022-07-06T04:25:36;5.70;;;0.80;;
17330;SDS011;8783;52.448;4.638;2022-07-06T04:28:02;2.72;;;0.70;;
17330;SDS011;8783;52.448;4.638;2022-07-06T04:30:28;2.28;;;0.80;;
17330;SDS011;8783;52.448;4.638;2022-07-06T04:32:53;3.15;;;0.80;;
17330;SDS011;8783;52.448;4.638;2022-07-06T04:35:20;5.53;;;0.70;;
17330;SDS011;8783;52.448;4.638;2022-07-06T04:37:46;2.92;;;1.00;;
17330;SDS011;8783;52.448;4.638;2022-07-06T04:40:12;5.93;;;0.98;;
17330;SDS011;8783;52.448;4.638;2022-07-06T04:42:37;2.95;;;0.93;;
17330;SDS011;8783;52.448;4.638;2022-07-06T04:45:03;4.35;;;1.00;;
17330;SDS011;8783;52.448;4.638;2022-07-06T04:47:30;2.28;;;0.63;;
17330;SDS011;8783;52.448;4.638;2022-07-06T04:49:55;2.20;;;0.52;;
17330;SDS011;8783;52.448;4.638;2022-07-06T04:52:21;2.47;;;0.65;;
17330;SDS011;8783;52.448;4.638;2022-07-06T04:54:46;4.70;;;0.80;;
17330;SDS011;8783;52.448;4.638;2022-07-06T04:57:12;3.53;;;0.80;;
17330;SDS011;8783;52.448;4.638;2022-07-06T04:59:37;3.03;;;0.80;;
17330;SDS011;8783;52.448;4.638;2022-07-06T05:02:04;2.33;;;0.80;;
17330;SDS011;8783;52.448;4.638;2022-07-06T05:04:29;2.00;;;0.70;;
17330;SDS011;8783;52.448;4.638;2022-07-06T05:06:55;3.13;;;0.80;;
17330;SDS011;8783;52.448;4.638;2022-07-06T05:09:20;4.18;;;0.90;;
17330;SDS011;8783;52.448;4.638;2022-07-06T05:11:46;5.13;;;1.20;;
17330;SDS011;8783;52.448;4.638;2022-07-06T05:14:12;4.68;;;1.08;;
17330;SDS011;8783;52.448;4.638;2022-07-06T05:16:37;4.68;;;1.08;;
17330;SDS011;8783;52.448;4.638;2022-07-06T05:19:03;3.05;;;0.93;;
17330;SDS011;8783;52.448;4.638;2022-07-06T05:21:29;4.53;;;0.80;;
17330;SDS011;8783;52.448;4.638;2022-07-06T05:23:54;2.83;;;0.75;;
17330;SDS011;8783;52.448;4.638;2022-07-06T05:26:20;3.25;;;0.70;;
17330;SDS011;8783;52.448;4.638;2022-07-06T05:28:46;4.75;;;0.80;;
17330;SDS011;8783;52.448;4.638;2022-07-06T05:31:11;2.80;;;0.75;;
17330;SDS011;8783;52.448;4.638;2022-07-06T05:33:37;2.63;;;0.60;;
17330;SDS011;8783;52.448;4.638;2022-07-06T05:36:03;2.40;;;0.90;;
17330;SDS011;8783;52.448;4.638;2022-07-06T05:38:29;2.08;;;0.73;;
17330;SDS011;8783;52.448;4.638;2022-07-06T05:40:54;2.38;;;0.80;;
17330;SDS011;8783;52.448;4.638;2022-07-06T05:43:20;2.60;;;0.70;;
17330;SDS011;8783;52.448;4.638;2022-07-06T05:45:46;1.10;;;0.50;;
17330;SDS011;8783;52.448;4.638;2022-07-06T05:48:11;2.10;;;0.47;;
17330;SDS011;8783;52.448;4.638;2022-07-06T05:50:55;5.28;;;0.73;;
17330;SDS011;8783;52.448;4.638;2022-07-06T05:53:21;1.10;;;0.55;;
17330;SDS011;8783;52.448;4.638;2022-07-06T05:55:47;2.40;;;0.60;;
17330;SDS011;8783;52.448;4.638;2022-07-06T05:58:13;1.90;;;0.70;;
17330;SDS011;8783;52.448;4.638;2022-07-06T06:00:39;2.75;;;0.60;;
17330;SDS011;8783;52.448;4.638;2022-07-06T06:03:04;3.08;;;0.57;;
17330;SDS011;8783;52.448;4.638;2022-07-06T06:05:33;4.18;;;0.50;;
17330;SDS011;8783;52.448;4.638;2022-07-06T06:07:58;2.25;;;0.40;;
17330;SDS011;8783;52.448;4.638;2022-07-06T06:10:24;1.02;;;0.40;;
17330;SDS011;8783;52.448;4.638;2022-07-06T06:12:50;3.05;;;0.50;;
17330;SDS011;8783;52.448;4.638;2022-07-06T06:15:16;2.35;;;0.60;;
17330;SDS011;8783;52.448;4.638;2022-07-06T06:17:42;1.77;;;0.47;;
17330;SDS011;8783;52.448;4.638;2022-07-06T06:20:08;2.83;;;0.60;;
17330;SDS011;8783;52.448;4.638;2022-07-06T06:25:18;2.35;;;0.55;;
17330;SDS011;8783;52.448;4.638;2022-07-06T06:27:53;2.72;;;0.60;;
17330;SDS011;8783;52.448;4.638;2022-07-06T06:30:18;1.65;;;0.40;;
17330;SDS011;8783;52.448;4.638;2022-07-06T06:32:44;2.75;;;0.60;;
17330;SDS011;8783;52.448;4.638;2022-07-06T06:35:10;1.63;;;0.40;;
17330;SDS011;8783;52.448;4.638;2022-07-06T06:37:38;3.25;;;0.50;;
17330;SDS011;8783;52.448;4.638;2022-07-06T06:40:04;2.78;;;0.50;;
17330;SDS011;8783;52.448;4.638;2022-07-06T06:42:31;5.03;;;1.13;;
17330;SDS011;8783;52.448;4.638;2022-07-06T06:44:57;13.57;;;3.10;;
17330;SDS011;8783;52.448;4.638;2022-07-06T06:47:23;22.70;;;4.80;;
17330;SDS011;8783;52.448;4.638;2022-07-06T06:49:51;16.88;;;4.28;;
17330;SDS011;8783;52.448;4.638;2022-07-06T06:52:17;15.27;;;3.70;;
17330;SDS011;8783;52.448;4.638;2022-07-06T06:54:42;11.25;;;3.10;;
17330;SDS011;8783;52.448;4.638;2022-07-06T06:57:08;11.68;;;2.60;;
17330;SDS011;8783;52.448;4.638;2022-07-06T06:59:37;9.38;;;2.17;;
17330;SDS011;8783;52.448;4.638;2022-07-06T07:02:02;7.30;;;1.23;;
17330;SDS011;8783;52.448;4.638;2022-07-06T07:04:28;4.10;;;0.90;;
17330;SDS011;8783;52.448;4.638;2022-07-06T07:06:55;4.15;;;1.00;;
17330;SDS011;8783;52.448;4.638;2022-07-06T07:09:21;3.63;;;0.80;;
17330;SDS011;8783;52.448;4.638;2022-07-06T07:11:46;4.30;;;0.90;;
17330;SDS011;8783;52.448;4.638;2022-07-06T07:14:12;4.22;;;0.82;;
17330;SDS011;8783;52.448;4.638;2022-07-06T07:16:38;1.73;;;0.55;;
17330;SDS011;8783;52.448;4.638;2022-07-06T07:19:03;2.05;;;0.60;;
17330;SDS011;8783;52.448;4.638;2022-07-06T07:21:29;5.68;;;0.70;;
17330;SDS011;8783;52.448;4.638;2022-07-06T07:23:54;2.88;;;0.60;;
17330;SDS011;8783;52.448;4.638;2022-07-06T07:26:20;2.50;;;0.68;;
17330;SDS011;8783;52.448;4.638;2022-07-06T07:28:46;1.20;;;0.50;;
17330;SDS011;8783;52.448;4.638;2022-07-06T07:31:11;1.13;;;0.40;;
17330;SDS011;8783;52.448;4.638;2022-07-06T07:33:37;2.55;;;0.50;;
17330;SDS011;8783;52.448;4.638;2022-07-06T07:36:03;2.30;;;0.50;;
17330;SDS011;8783;52.448;4.638;2022-07-06T07:38:29;1.65;;;0.70;;
17330;SDS011;8783;52.448;4.638;2022-07-06T07:40:55;0.47;;;0.30;;
17330;SDS011;8783;52.448;4.638;2022-07-06T07:43:20;1.35;;;0.47;;
17330;SDS011;8783;52.448;4.638;2022-07-06T07:45:47;2.40;;;0.38;;
17330;SDS011;8783;52.448;4.638;2022-07-06T07:48:13;3.05;;;0.50;;
17330;SDS011;8783;52.448;4.638;2022-07-06T07:50:40;4.88;;;0.60;;
17330;SDS011;8783;52.448;4.638;2022-07-06T07:53:06;1.75;;;0.50;;
17330;SDS011;8783;52.448;4.638;2022-07-06T07:55:31;1.52;;;0.50;;
17330;SDS011;8783;52.448;4.638;2022-07-06T07:57:57;1.02;;;0.47;;
17330;SDS011;8783;52.448;4.638;2022-07-06T08:00:22;1.67;;;0.35;;
17330;SDS011;8783;52.448;4.638;2022-07-06T08:02:49;2.92;;;0.35;;
17330;SDS011;8783;52.448;4.638;2022-07-06T08:05:15;0.95;;;0.40;;
17330;SDS011;8783;52.448;4.638;2022-07-06T08:07:43;1.60;;;0.50;;
17330;SDS011;8783;52.448;4.638;2022-07-06T08:10:09;2.20;;;0.55;;
17330;SDS011;8783;52.448;4.638;2022-07-06T08:12:35;2.80;;;0.50;;
17330;SDS011;8783;52.448;4.638;2022-07-06T08:15:01;2.75;;;0.50;;
17330;SDS011;8783;52.448;4.638;2022-07-06T08:17:27;2.15;;;0.50;;
17330;SDS011;8783;52.448;4.638;2022-07-06T08:19:53;2.50;;;0.40;;
17330;SDS011;8783;52.448;4.638;2022-07-06T08:22:18;1.83;;;0.50;;
17330;SDS011;8783;52.448;4.638;2022-07-06T08:24:44;3.60;;;0.50;;
17330;SDS011;8783;52.448;4.638;2022-07-06T08:27:09;2.28;;;0.55;;
17330;SDS011;8783;52.448;4.638;2022-07-06T08:29:35;2.28;;;0.35;;
17330;SDS011;8783;52.448;4.638;2022-07-06T08:32:01;1.15;;;0.40;;
17330;SDS011;8783;52.448;4.638;2022-07-06T08:34:27;1.65;;;0.40;;
17330;SDS011;8783;52.448;4.638;2022-07-06T08:36:52;1.98;;;0.40;;
17330;SDS011;8783;52.448;4.638;2022-07-06T08:39:18;1.15;;;0.40;;
17330;SDS011;8783;52.448;4.638;2022-07-06T08:41:44;2.03;;;0.50;;
17330;SDS011;8783;52.448;4.638;2022-07-06T08:44:12;1.05;;;0.50;;
17330;SDS011;8783;52.448;4.638;2022-07-06T08:46:41;1.90;;;0.50;;
17330;SDS011;8783;52.448;4.638;2022-07-06T08:49:07;1.52;;;0.40;;
17330;SDS011;8783;52.448;4.638;2022-07-06T08:51:36;1.83;;;0.45;;
17330;SDS011;8783;52.448;4.638;2022-07-06T08:54:03;1.42;;;0.38;;
17330;SDS011;8783;52.448;4.638;2022-07-06T08:56:29;3.35;;;0.40;;
17330;SDS011;8783;52.448;4.638;2022-07-06T08:58:55;1.40;;;0.40;;
17330;SDS011;8783;52.448;4.638;2022-07-06T09:01:22;1.27;;;0.40;;
17330;SDS011;8783;52.448;4.638;2022-07-06T09:03:50;2.20;;;0.52;;
17330;SDS011;8783;52.448;4.638;2022-07-06T09:06:19;2.63;;;0.43;;
17330;SDS011;8783;52.448;4.638;2022-07-06T09:08:54;1.63;;;0.25;;
17330;SDS011;8783;52.448;4.638;2022-07-06T09:11:21;1.40;;;0.30;;
17330;SDS011;8783;52.448;4.638;2022-07-06T09:13:48;0.65;;;0.40;;
17330;SDS011;8783;52.448;4.638;2022-07-06T09:16:15;0.50;;;0.32;;
17330;SDS011;8783;52.448;4.638;2022-07-06T09:18:45;1.10;;;0.30;;
17330;SDS011;8783;52.448;4.638;2022-07-06T09:21:21;3.55;;;0.52;;
17330;SDS011;8783;52.448;4.638;2022-07-06T09:23:55;2.33;;;0.70;;
17330;SDS011;8783;52.448;4.638;2022-07-06T09:26:22;2.75;;;0.80;;
17330;SDS011;8783;52.448;4.638;2022-07-06T09:28:48;2.25;;;0.60;;
17330;SDS011;8783;52.448;4.638;2022-07-06T09:31:14;3.85;;;0.73;;
17330;SDS011;8783;52.448;4.638;2022-07-06T09:33:52;11.55;;;2.80;;
17330;SDS011;8783;52.448;4.638;2022-07-06T09:36:38;32.83;;;7.28;;
17330;SDS011;8783;52.448;4.638;2022-07-06T09:39:17;34.20;;;6.13;;
17330;SDS011;8783;52.448;4.638;2022-07-06T09:41:45;31.88;;;6.25;;
17330;SDS011;8783;52.448;4.638;2022-07-06T09:44:11;11.43;;;2.67;;
17330;SDS011;8783;52.448;4.638;2022-07-06T09:46:37;5.80;;;1.00;;
17330;SDS011;8783;52.448;4.638;2022-07-06T09:49:07;3.50;;;0.95;;
17330;SDS011;8783;52.448;4.638;2022-07-06T09:51:35;4.03;;;0.55;;
17330;SDS011;8783;52.448;4.638;2022-07-06T09:54:03;5.00;;;1.00;;
17330;SDS011;8783;52.448;4.638;2022-07-06T09:56:37;6.55;;;1.08;;
17330;SDS011;8783;52.448;4.638;2022-07-06T09:59:15;5.25;;;0.80;;
17330;SDS011;8783;52.448;4.638;2022-07-06T10:01:41;3.03;;;0.70;;
17330;SDS011;8783;52.448;4.638;2022-07-06T10:04:08;1.90;;;0.60;;
17330;SDS011;8783;52.448;4.638;2022-07-06T10:06:37;1.67;;;0.60;;
17330;SDS011;8783;52.448;4.638;2022-07-06T10:09:07;2.35;;;0.20;;
17330;SDS011;8783;52.448;4.638;2022-07-06T10:11:41;1.38;;;0.45;;
17330;SDS011;8783;52.448;4.638;2022-07-06T10:14:13;1.98;;;0.70;;
17330;SDS011;8783;52.448;4.638;2022-07-06T10:16:42;3.45;;;0.60;;
17330;SDS011;8783;52.448;4.638;2022-07-06T10:19:10;2.05;;;0.40;;
17330;SDS011;8783;52.448;4.638;2022-07-06T10:21:36;1.70;;;0.30;;
17330;SDS011;8783;52.448;4.638;2022-07-06T10:24:03;2.83;;;0.60;;
17330;SDS011;8783;52.448;4.638;2022-07-06T10:26:30;0.52;;;0.30;;
17330;SDS011;8783;52.448;4.638;2022-07-06T10:28:58;1.70;;;0.40;;
17330;SDS011;8783;52.448;4.638;2022-07-06T10:31:25;0.95;;;0.35;;
17330;SDS011;8783;52.448;4.638;2022-07-06T10:33:53;0.68;;;0.30;;
17330;SDS011;8783;52.448;4.638;2022-07-06T10:36:19;2.97;;;0.40;;
17330;SDS011;8783;52.448;4.638;2022-07-06T10:38:49;1.00;;;0.40;;
17330;SDS011;8783;52.448;4.638;2022-07-06T10:41:15;1.55;;;0.30;;
17330;SDS011;8783;52.448;4.638;2022-07-06T10:43:42;1.45;;;0.45;;
17330;SDS011;8783;52.448;4.638;2022-07-06T10:46:13;1.15;;;0.30;;
17330;SDS011;8783;52.448;4.638;2022-07-06T10:48:44;1.92;;;0.40;;
17330;SDS011;8783;52.448;4.638;2022-07-06T10:51:11;2.45;;;0.73;;
17330;SDS011;8783;52.448;4.638;2022-07-06T10:53:57;2.05;;;0.47;;
17330;SDS011;8783;52.448;4.638;2022-07-06T10:56:40;0.40;;;0.20;;
17330;SDS011;8783;52.448;4.638;2022-07-06T11:04:37;0.75;;;0.35;;
17330;SDS011;8783;52.448;4.638;2022-07-06T11:07:07;1.95;;;0.43;;
17330;SDS011;8783;52.448;4.638;2022-07-06T11:09:35;1.92;;;0.32;;
17330;SDS011;8783;52.448;4.638;2022-07-06T11:12:11;0.98;;;0.30;;
17330;SDS011;8783;52.448;4.638;2022-07-06T11:14:40;0.73;;;0.30;;
17330;SDS011;8783;52.448;4.638;2022-07-06T11:17:06;0.55;;;0.30;;
17330;SDS011;8783;52.448;4.638;2022-07-06T11:19:36;0.93;;;0.40;;
17330;SDS011;8783;52.448;4.638;2022-07-06T11:22:06;3.88;;;0.47;;
17330;SDS011;8783;52.448;4.638;2022-07-06T11:24:36;1.80;;;0.47;;
17330;SDS011;8783;52.448;4.638;2022-07-06T11:27:04;1.15;;;0.45;;
17330;SDS011;8783;52.448;4.638;2022-07-06T11:29:32;1.33;;;0.30;;
17330;SDS011;8783;52.448;4.638;2022-07-06T11:31:59;2.22;;;0.40;;
17330;SDS011;8783;52.448;4.638;2022-07-06T11:34:30;1.85;;;0.40;;
17330;SDS011;8783;52.448;4.638;2022-07-06T11:36:57;1.17;;;0.40;;
17330;SDS011;8783;52.448;4.638;2022-07-06T11:39:28;1.23;;;0.40;;
17330;SDS011;8783;52.448;4.638;2022-07-06T11:41:55;1.25;;;0.40;;
17330;SDS011;8783;52.448;4.638;2022-07-06T11:44:21;1.75;;;0.40;;
17330;SDS011;8783;52.448;4.638;2022-07-06T11:46:47;2.97;;;0.50;;
17330;SDS011;8783;52.448;4.638;2022-07-06T11:49:13;1.45;;;0.40;;
17330;SDS011;8783;52.448;4.638;2022-07-06T11:51:39;2.17;;;0.40;;
17330;SDS011;8783;52.448;4.638;2022-07-06T11:54:13;2.40;;;0.52;;
17330;SDS011;8783;52.448;4.638;2022-07-06T11:56:47;0.80;;;0.32;;
17330;SDS011;8783;52.448;4.638;2022-07-06T11:59:20;1.83;;;0.40;;
17330;SDS011;8783;52.448;4.638;2022-07-06T12:01:59;1.35;;;0.28;;
17330;SDS011;8783;52.448;4.638;2022-07-06T12:04:26;1.17;;;0.57;;
17330;SDS011;8783;52.448;4.638;2022-07-06T12:06:53;1.77;;;0.50;;
17330;SDS011;8783;52.448;4.638;2022-07-06T12:09:19;2.22;;;0.47;;
17330;SDS011;8783;52.448;4.638;2022-07-06T12:11:48;3.65;;;0.50;;
17330;SDS011;8783;52.448;4.638;2022-07-06T12:14:18;2.33;;;0.40;;
17330;SDS011;8783;52.448;4.638;2022-07-06T12:16:46;2.17;;;0.38;;
17330;SDS011;8783;52.448;4.638;2022-07-06T12:19:13;1.17;;;0.50;;
17330;SDS011;8783;52.448;4.638;2022-07-06T12:21:47;1.85;;;0.50;;
17330;SDS011;8783;52.448;4.638;2022-07-06T12:24:19;1.02;;;0.50;;
17330;SDS011;8783;52.448;4.638;2022-07-06T12:26:46;4.68;;;0.60;;
17330;SDS011;8783;52.448;4.638;2022-07-06T12:29:13;2.15;;;0.60;;
17330;SDS011;8783;52.448;4.638;2022-07-06T12:31:43;2.45;;;0.38;;
17330;SDS011;8783;52.448;4.638;2022-07-06T12:34:13;1.10;;;0.45;;
17330;SDS011;8783;52.448;4.638;2022-07-06T12:37:16;1.75;;;0.40;;
17330;SDS011;8783;52.448;4.638;2022-07-06T12:39:45;1.27;;;0.40;;
17330;SDS011;8783;52.448;4.638;2022-07-06T12:42:15;2.53;;;0.70;;
17330;SDS011;8783;52.448;4.638;2022-07-06T12:44:51;4.07;;;0.75;;
17330;SDS011;8783;52.448;4.638;2022-07-06T12:47:18;2.83;;;0.70;;
17330;SDS011;8783;52.448;4.638;2022-07-06T12:49:46;3.60;;;0.80;;
17330;SDS011;8783;52.448;4.638;2022-07-06T12:52:12;4.15;;;0.70;;
17330;SDS011;8783;52.448;4.638;2022-07-06T12:54:41;2.20;;;0.60;;
17330;SDS011;8783;52.448;4.638;2022-07-06T12:57:13;2.25;;;0.75;;
17330;SDS011;8783;52.448;4.638;2022-07-06T12:59:46;3.20;;;0.60;;
17330;SDS011;8783;52.448;4.638;2022-07-06T13:02:17;4.38;;;0.80;;
17330;SDS011;8783;52.448;4.638;2022-07-06T13:04:56;3.83;;;0.90;;
17330;SDS011;8783;52.448;4.638;2022-07-06T13:07:23;4.90;;;0.90;;
17330;SDS011;8783;52.448;4.638;2022-07-06T13:09:48;4.60;;;0.88;;
17330;SDS011;8783;52.448;4.638;2022-07-06T13:12:14;1.60;;;0.93;;
17330;SDS011;8783;52.448;4.638;2022-07-06T13:14:40;2.47;;;0.75;;
17330;SDS011;8783;52.448;4.638;2022-07-06T13:17:05;6.82;;;0.90;;
17330;SDS011;8783;52.448;4.638;2022-07-06T13:19:31;1.58;;;0.60;;
17330;SDS011;8783;52.448;4.638;2022-07-06T13:21:57;6.35;;;0.88;;
17330;SDS011;8783;52.448;4.638;2022-07-06T13:24:22;3.28;;;0.93;;
17330;SDS011;8783;52.448;4.638;2022-07-06T13:26:48;3.10;;;0.80;;
17330;SDS011;8783;52.448;4.638;2022-07-06T13:29:14;3.88;;;1.27;;
17330;SDS011;8783;52.448;4.638;2022-07-06T13:31:40;5.63;;;1.10;;
17330;SDS011;8783;52.448;4.638;2022-07-06T13:34:06;5.75;;;1.40;;
17330;SDS011;8783;52.448;4.638;2022-07-06T13:36:32;4.57;;;1.10;;
17330;SDS011;8783;52.448;4.638;2022-07-06T13:38:59;32.17;;;6.93;;
17330;SDS011;8783;52.448;4.638;2022-07-06T13:41:24;26.98;;;5.53;;
17330;SDS011;8783;52.448;4.638;2022-07-06T13:43:50;12.18;;;2.80;;
17330;SDS011;8783;52.448;4.638;2022-07-06T13:46:16;7.38;;;2.20;;
17330;SDS011;8783;52.448;4.638;2022-07-06T13:48:41;8.50;;;1.90;;
17330;SDS011;8783;52.448;4.638;2022-07-06T13:51:07;5.95;;;2.17;;
17330;SDS011;8783;52.448;4.638;2022-07-06T13:53:33;10.27;;;2.38;;
17330;SDS011;8783;52.448;4.638;2022-07-06T13:55:59;8.80;;;2.30;;
17330;SDS011;8783;52.448;4.638;2022-07-06T13:58:25;10.20;;;2.20;;
17330;SDS011;8783;52.448;4.638;2022-07-06T14:00:51;8.05;;;2.28;;
17330;SDS011;8783;52.448;4.638;2022-07-06T14:03:16;8.32;;;2.08;;
17330;SDS011;8783;52.448;4.638;2022-07-06T14:05:42;7.35;;;2.30;;
17330;SDS011;8783;52.448;4.638;2022-07-06T14:08:08;8.93;;;2.53;;
17330;SDS011;8783;52.448;4.638;2022-07-06T14:10:33;6.43;;;2.17;;
17330;SDS011;8783;52.448;4.638;2022-07-06T14:12:59;11.18;;;3.20;;
17330;SDS011;8783;52.448;4.638;2022-07-06T14:15:25;8.65;;;2.80;;
17330;SDS011;8783;52.448;4.638;2022-07-06T14:17:50;8.43;;;2.53;;
17330;SDS011;8783;52.448;4.638;2022-07-06T14:20:16;5.70;;;2.03;;
17330;SDS011;8783;52.448;4.638;2022-07-06T14:22:43;5.90;;;2.28;;
17330;SDS011;8783;52.448;4.638;2022-07-06T14:25:09;7.68;;;2.10;;
17330;SDS011;8783;52.448;4.638;2022-07-06T14:27:34;3.38;;;1.48;;
17330;SDS011;8783;52.448;4.638;2022-07-06T14:30:00;8.50;;;1.90;;
17330;SDS011;8783;52.448;4.638;2022-07-06T14:32:26;6.78;;;1.60;;
17330;SDS011;8783;52.448;4.638;2022-07-06T14:34:51;6.70;;;1.80;;
17330;SDS011;8783;52.448;4.638;2022-07-06T14:37:17;8.95;;;1.58;;
17330;SDS011;8783;52.448;4.638;2022-07-06T14:39:43;4.97;;;1.40;;
17330;SDS011;8783;52.448;4.638;2022-07-06T14:42:11;9.68;;;1.70;;
17330;SDS011;8783;52.448;4.638;2022-07-06T14:44:37;4.43;;;1.15;;
17330;SDS011;8783;52.448;4.638;2022-07-06T14:47:02;5.57;;;1.40;;
17330;SDS011;8783;52.448;4.638;2022-07-06T14:49:29;5.32;;;1.25;;
17330;SDS011;8783;52.448;4.638;2022-07-06T14:51:55;4.78;;;1.40;;
17330;SDS011;8783;52.448;4.638;2022-07-06T14:54:22;6.70;;;1.23;;
17330;SDS011;8783;52.448;4.638;2022-07-06T14:56:51;5.47;;;1.50;;
17330;SDS011;8783;52.448;4.638;2022-07-06T14:59:17;5.72;;;1.50;;
17330;SDS011;8783;52.448;4.638;2022-07-06T15:01:42;4.25;;;1.20;;
17330;SDS011;8783;52.448;4.638;2022-07-06T15:04:09;5.65;;;1.17;;
17330;SDS011;8783;52.448;4.638;2022-07-06T15:06:35;4.57;;;1.42;;
17330;SDS011;8783;52.448;4.638;2022-07-06T15:09:02;6.22;;;1.50;;
17330;SDS011;8783;52.448;4.638;2022-07-06T15:11:32;5.88;;;1.40;;